createdAt,value
2019-05-10T00:02:13.648Z,2.57
2019-05-10T00:08:36.721Z,2.80
2019-05-10T00:14:51.431Z,2.97
2019-05-10T00:20:55.999Z,2.87
2019-05-10T00:27:00.624Z,3.20
2019-05-10T00:33:05.169Z,3.43
2019-05-10T00:39:09.854Z,3.53
2019-05-10T00:45:14.663Z,3.70
2019-05-10T00:51:19.290Z,4.40
2019-05-10T00:57:23.850Z,4.43
2019-05-10T01:03:28.389Z,4.67
2019-05-10T01:09:32.953Z,3.80
2019-05-10T01:15:37.505Z,4.83
2019-05-10T01:21:42.126Z,5.07
2019-05-10T01:27:46.823Z,6.43
2019-05-10T01:33:51.379Z,5.53
2019-05-10T01:39:55.934Z,5.50
2019-05-10T01:46:00.478Z,4.97
2019-05-10T01:52:05.188Z,4.63
2019-05-10T01:58:09.828Z,6.73
2019-05-10T02:04:17.528Z,4.80
2019-05-10T02:10:20.857Z,5.60
2019-05-10T02:16:25.492Z,4.90
2019-05-10T02:22:30.053Z,4.53
2019-05-10T02:28:34.682Z,5.43
2019-05-10T02:34:39.254Z,6.00
2019-05-10T02:40:43.939Z,5.70
2019-05-10T02:46:48.591Z,6.00
2019-05-10T02:52:53.129Z,5.90
2019-05-10T02:58:58.438Z,5.73
2019-05-10T03:05:06.394Z,5.40
2019-05-10T03:11:13.951Z,6.70
2019-05-10T03:17:20.495Z,5.93
2019-05-10T03:23:26.391Z,5.57
2019-05-10T03:29:31.028Z,5.70
2019-05-10T03:35:35.571Z,5.30
2019-05-10T03:41:40.415Z,5.33
2019-05-10T03:47:45.033Z,4.70
2019-05-10T03:53:49.585Z,5.03
2019-05-10T03:59:54.147Z,5.80
2019-05-10T04:05:58.772Z,5.80
2019-05-10T04:12:03.354Z,4.93
2019-05-10T04:18:07.965Z,5.40
2019-05-10T04:24:12.529Z,6.30
2019-05-10T04:30:18.104Z,7.20
2019-05-10T04:36:22.659Z,7.67
2019-05-10T04:42:27.234Z,7.90
2019-05-10T04:48:31.804Z,7.50
2019-05-10T04:54:36.357Z,9.17
2019-05-10T05:00:40.912Z,8.87
2019-05-10T05:06:45.461Z,8.60
2019-05-10T05:12:50.013Z,8.70
2019-05-10T05:18:54.591Z,9.63
2019-05-10T05:25:01.136Z,9.50
2019-05-10T05:31:05.434Z,12.47
2019-05-10T05:37:09.969Z,8.30
2019-05-10T05:43:14.523Z,6.80
2019-05-10T05:49:19.079Z,6.90
2019-05-10T05:55:23.630Z,5.37
2019-05-10T06:01:29.485Z,4.90
2019-05-10T06:07:37.913Z,5.70
2019-05-10T06:13:40.720Z,5.40
2019-05-10T06:19:45.280Z,4.10
2019-05-10T06:25:49.915Z,7.43
2019-05-10T06:31:54.476Z,4.63
2019-05-10T06:37:59.087Z,5.80
2019-05-10T06:44:03.706Z,16.70
2019-05-10T06:50:09.413Z,5.27
2019-05-10T06:56:14.072Z,3.80
2019-05-10T07:02:20.129Z,3.53
2019-05-10T07:08:24.990Z,3.80
2019-05-10T07:14:29.541Z,4.00
2019-05-10T07:20:34.091Z,3.50
2019-05-10T07:26:38.662Z,3.80
2019-05-10T07:32:43.304Z,3.37
2019-05-10T07:38:47.882Z,4.50
2019-05-10T07:44:52.431Z,4.83
2019-05-10T07:50:56.997Z,7.07
2019-05-10T07:57:01.604Z,4.20
2019-05-10T08:03:15.806Z,4.37
2019-05-10T08:09:12.778Z,5.20
2019-05-10T08:15:19.534Z,4.40
2019-05-10T08:21:26.247Z,4.43
2019-05-10T08:27:32.316Z,4.07
2019-05-10T08:33:36.398Z,4.30
2019-05-10T08:39:45.400Z,4.00
2019-05-10T08:45:49.498Z,4.03
2019-05-10T08:51:53.768Z,4.20
2019-05-10T08:58:02.922Z,5.27
2019-05-10T09:04:22.243Z,4.53
2019-05-10T09:10:27.114Z,4.87
2019-05-10T09:16:39.420Z,3.73
2019-05-10T09:22:38.970Z,4.73
2019-05-10T09:28:47.678Z,5.23
2019-05-10T09:34:54.130Z,5.30
2019-05-10T09:41:02.450Z,4.43
2019-05-10T09:47:07.212Z,3.00
2019-05-10T09:53:13.541Z,3.30
2019-05-10T09:59:18.064Z,3.70
2019-05-10T10:05:26.935Z,3.37
2019-05-10T10:11:31.808Z,3.27
2019-05-10T10:17:41.967Z,3.20
2019-05-10T10:23:43.783Z,3.40
2019-05-10T10:29:49.012Z,3.60
2019-05-10T10:35:56.461Z,3.27
2019-05-10T10:42:08.955Z,9.83
2019-05-10T10:48:13.059Z,5.97
2019-05-10T10:54:22.420Z,21.10
2019-05-10T11:00:39.282Z,5.80
2019-05-10T11:06:48.515Z,30.03
2019-05-10T11:12:56.226Z,6.70
2019-05-10T11:19:03.583Z,7.47
2019-05-10T11:25:12.036Z,4.30
2019-05-10T11:31:16.121Z,4.40
2019-05-10T11:37:31.079Z,4.80
2019-05-10T11:43:31.361Z,5.67
2019-05-10T11:49:40.751Z,4.40
2019-05-10T11:55:48.602Z,5.80
2019-05-10T12:01:58.039Z,4.83
2019-05-10T12:08:02.128Z,5.43
2019-05-10T12:14:07.122Z,5.80
2019-05-10T12:20:16.708Z,5.20
2019-05-10T12:32:27.077Z,3.97
2019-05-10T12:38:35.693Z,4.40
2019-05-10T12:44:38.856Z,3.70
2019-05-10T12:50:46.185Z,5.20
2019-05-10T12:56:50.939Z,6.57
2019-05-10T13:03:10.262Z,7.97
2019-05-10T13:09:02.014Z,8.00
2019-05-10T13:15:08.022Z,8.03
2019-05-10T13:21:20.022Z,6.73
2019-05-10T13:27:20.035Z,6.50
2019-05-10T13:33:28.974Z,6.30
2019-05-10T13:39:30.980Z,6.80
2019-05-10T13:45:37.623Z,7.43
2019-05-10T13:51:41.921Z,8.47
2019-05-10T13:57:46.477Z,8.07
2019-05-10T14:04:00.086Z,7.73
2019-05-10T14:09:57.306Z,9.10
2019-05-10T14:16:01.864Z,8.97
2019-05-10T14:22:06.426Z,9.80
2019-05-10T14:28:15.711Z,8.70
2019-05-10T14:34:17.310Z,9.87
2019-05-10T14:40:27.604Z,6.67
2019-05-10T14:46:28.213Z,6.40
2019-05-10T14:52:32.781Z,6.90
2019-05-10T14:58:37.406Z,7.00
2019-05-10T15:04:44.959Z,7.10
2019-05-10T15:10:48.267Z,9.33
2019-05-10T15:16:52.821Z,10.43
2019-05-10T15:22:57.395Z,11.20
2019-05-10T15:29:01.950Z,12.50
2019-05-10T15:35:08.889Z,14.20
2019-05-10T15:41:16.893Z,14.50
2019-05-10T15:47:22.032Z,14.43
2019-05-10T15:53:27.395Z,13.93
2019-05-10T15:59:32.255Z,13.13
2019-05-10T16:05:43.407Z,10.97
2019-05-10T16:11:43.092Z,10.00
2019-05-10T16:17:47.878Z,11.00
2019-05-10T16:23:52.678Z,10.60
2019-05-10T16:29:57.358Z,11.03
2019-05-10T16:36:02.106Z,11.30
2019-05-10T16:42:06.788Z,11.10
2019-05-10T16:48:11.507Z,11.50
2019-05-10T16:54:24.607Z,12.97
2019-05-10T17:00:23.604Z,11.40
2019-05-10T17:06:28.450Z,12.07
2019-05-10T17:12:33.483Z,11.33
2019-05-10T17:18:38.091Z,11.40
2019-05-10T17:24:42.749Z,11.67
2019-05-10T17:30:47.416Z,11.97
2019-05-10T17:36:58.117Z,33.83
2019-05-10T17:42:58.677Z,9.23
2019-05-10T17:49:03.276Z,9.03
2019-05-10T17:55:10.828Z,10.03
2019-05-10T18:01:14.610Z,9.70
2019-05-10T18:07:19.600Z,10.80
2019-05-10T18:13:24.262Z,11.70
2019-05-10T18:19:28.872Z,11.83
2019-05-10T18:25:34.415Z,12.57
2019-05-10T18:31:39.076Z,19.70
2019-05-10T18:37:44.533Z,13.13
2019-05-10T18:43:49.130Z,12.60
2019-05-10T18:49:53.833Z,12.57
2019-05-10T18:55:58.477Z,10.70
2019-05-10T19:02:03.232Z,13.73
2019-05-10T19:08:08.035Z,14.10
2019-05-10T19:14:12.825Z,14.70
2019-05-10T19:20:18.491Z,12.93
2019-05-10T19:26:23.834Z,15.33
2019-05-10T19:32:29.687Z,13.30
2019-05-10T19:38:34.277Z,13.87
2019-05-10T19:44:40.545Z,13.70
2019-05-10T19:50:45.253Z,15.00
2019-05-10T19:56:49.838Z,13.50
2019-05-10T20:02:54.432Z,13.10
2019-05-10T20:08:59.683Z,13.50
2019-05-10T20:15:06.065Z,12.60
2019-05-10T20:21:10.655Z,11.47
2019-05-10T20:27:15.244Z,13.10
2019-05-10T20:33:19.894Z,11.37
2019-05-10T20:39:24.437Z,14.07
2019-05-10T20:45:28.994Z,14.20
2019-05-10T20:51:33.596Z,12.47
2019-05-10T20:57:38.213Z,12.47
2019-05-10T21:03:42.863Z,11.40
2019-05-10T21:09:47.598Z,14.40
2019-05-10T21:15:52.133Z,13.30
2019-05-10T21:21:56.689Z,12.93
2019-05-10T21:28:01.246Z,13.03
2019-05-10T21:34:09.559Z,12.50
2019-05-10T21:40:12.646Z,14.70
2019-05-10T21:46:17.215Z,13.37
2019-05-10T21:52:21.834Z,13.00
2019-05-10T21:58:26.437Z,13.77
2019-05-10T22:04:30.976Z,15.30
2019-05-10T22:10:35.538Z,12.67
2019-05-10T22:16:40.108Z,12.30
2019-05-10T22:22:44.667Z,10.70
2019-05-10T22:28:49.209Z,10.73
2019-05-10T22:34:53.735Z,11.37
2019-05-10T22:40:58.286Z,11.73
2019-05-10T22:47:02.837Z,11.60
2019-05-10T22:53:07.471Z,12.57
2019-05-10T22:59:12.090Z,12.87
2019-05-10T23:05:16.863Z,11.77
2019-05-10T23:11:21.409Z,12.13
2019-05-10T23:17:25.977Z,14.70
2019-05-10T23:23:30.522Z,16.20
2019-05-10T23:29:35.689Z,16.33
2019-05-10T23:35:40.244Z,15.03
2019-05-10T23:41:44.867Z,12.60
2019-05-10T23:47:49.429Z,14.77
2019-05-10T23:53:54.020Z,14.07
2019-05-10T23:59:58.572Z,13.60
